sensor_id;sensor_type;location;lat;lon;timestamp;pressure;altitude;pressure_sealevel;temperature;humidity
56713;BME280;42589;45.536;9.032;2023-02-21T00:02:23;100397.41;;;14.54;47.73
56713;BME280;42589;45.536;9.032;2023-02-21T00:05:41;100389.81;;;14.41;48.60
56713;BME280;42589;45.536;9.032;2023-02-21T00:09:00;100400.00;;;14.37;47.70
56713;BME280;42589;45.536;9.032;2023-02-21T00:12:19;100367.88;;;14.29;47.97
56713;BME280;42589;45.536;9.032;2023-02-21T00:15:38;100387.09;;;14.25;48.27
56713;BME280;42589;45.536;9.032;2023-02-21T00:18:57;100382.78;;;14.40;47.47
56713;BME280;42589;45.536;9.032;2023-02-21T00:22:16;100370.72;;;14.36;47.79
56713;BME280;42589;45.536;9.032;2023-02-21T00:25:35;100383.97;;;14.46;47.42
56713;BME280;42589;45.536;9.032;2023-02-21T00:28:55;100378.28;;;14.40;47.22
56713;BME280;42589;45.536;9.032;2023-02-21T00:32:14;100364.03;;;14.32;47.62
56713;BME280;42589;45.536;9.032;2023-02-21T00:35:33;100365.22;;;14.37;47.10
56713;BME280;42589;45.536;9.032;2023-02-21T00:38:52;100373.81;;;14.07;46.91
56713;BME280;42589;45.536;9.032;2023-02-21T00:42:11;100372.00;;;14.15;47.66
56713;BME280;42589;45.536;9.032;2023-02-21T00:45:30;100354.63;;;14.11;47.65
56713;BME280;42589;45.536;9.032;2023-02-21T00:48:49;100363.41;;;13.96;47.75
56713;BME280;42589;45.536;9.032;2023-02-21T00:52:08;100357.81;;;13.81;48.94
56713;BME280;42589;45.536;9.032;2023-02-21T00:55:27;100367.56;;;13.90;47.86
56713;BME280;42589;45.536;9.032;2023-02-21T00:58:46;100366.53;;;13.83;47.91
56713;BME280;42589;45.536;9.032;2023-02-21T01:02:05;100357.41;;;14.02;47.35
56713;BME280;42589;45.536;9.032;2023-02-21T01:05:24;100345.69;;;13.94;47.77
56713;BME280;42589;45.536;9.032;2023-02-21T01:08:46;100360.28;;;14.08;47.55
56713;BME280;42589;45.536;9.032;2023-02-21T01:12:05;100366.81;;;14.14;47.12
56713;BME280;42589;45.536;9.032;2023-02-21T01:15:24;100361.00;;;14.27;46.82
56713;BME280;42589;45.536;9.032;2023-02-21T01:18:43;100361.97;;;14.09;47.13
56713;BME280;42589;45.536;9.032;2023-02-21T01:22:03;100349.38;;;14.02;47.35
56713;BME280;42589;45.536;9.032;2023-02-21T01:25:22;100340.38;;;14.03;46.80
56713;BME280;42589;45.536;9.032;2023-02-21T01:28:41;100341.88;;;13.97;47.36
56713;BME280;42589;45.536;9.032;2023-02-21T01:32:00;100333.47;;;13.92;47.36
56713;BME280;42589;45.536;9.032;2023-02-21T01:35:22;100326.16;;;13.94;47.69
56713;BME280;42589;45.536;9.032;2023-02-21T01:38:41;100326.97;;;13.86;47.44
56713;BME280;42589;45.536;9.032;2023-02-21T01:42:00;100323.78;;;13.83;47.58
56713;BME280;42589;45.536;9.032;2023-02-21T01:48:38;100305.59;;;13.86;46.99
56713;BME280;42589;45.536;9.032;2023-02-21T01:51:58;100312.72;;;13.78;47.46
56713;BME280;42589;45.536;9.032;2023-02-21T01:55:18;100313.41;;;13.80;47.19
56713;BME280;42589;45.536;9.032;2023-02-21T01:58:37;100321.56;;;13.78;47.71
56713;BME280;42589;45.536;9.032;2023-02-21T02:02:05;100310.75;;;13.54;48.68
56713;BME280;42589;45.536;9.032;2023-02-21T02:05:27;100312.22;;;13.74;47.20
56713;BME280;42589;45.536;9.032;2023-02-21T02:08:46;100307.50;;;13.68;47.07
56713;BME280;42589;45.536;9.032;2023-02-21T02:16:07;100319.13;;;13.93;47.74
56713;BME280;42589;45.536;9.032;2023-02-21T02:36:19;100308.59;;;13.57;48.31
56713;BME280;42589;45.536;9.032;2023-02-21T02:39:34;100310.19;;;13.68;48.56
56713;BME280;42589;45.536;9.032;2023-02-21T02:46:05;100302.00;;;14.12;47.23
56713;BME280;42589;45.536;9.032;2023-02-21T02:49:13;100289.09;;;13.99;46.98
56713;BME280;42589;45.536;9.032;2023-02-21T02:52:16;100300.13;;;14.04;46.47
56713;BME280;42589;45.536;9.032;2023-02-21T02:55:23;100297.47;;;14.21;46.63
56713;BME280;42589;45.536;9.032;2023-02-21T02:58:32;100291.59;;;14.01;45.49
56713;BME280;42589;45.536;9.032;2023-02-21T03:08:52;100296.38;;;13.81;46.83
56713;BME280;42589;45.536;9.032;2023-02-21T03:15:56;100304.06;;;13.50;47.67
56713;BME280;42589;45.536;9.032;2023-02-21T03:19:01;100302.66;;;13.37;46.82
56713;BME280;42589;45.536;9.032;2023-02-21T03:22:10;100299.88;;;13.81;47.28
56713;BME280;42589;45.536;9.032;2023-02-21T03:25:13;100293.56;;;13.90;46.61
56713;BME280;42589;45.536;9.032;2023-02-21T03:28:15;100279.78;;;13.69;46.54
56713;BME280;42589;45.536;9.032;2023-02-21T03:31:18;100296.59;;;14.04;46.61
56713;BME280;42589;45.536;9.032;2023-02-21T03:34:21;100273.00;;;13.83;46.68
56713;BME280;42589;45.536;9.032;2023-02-21T03:40:33;100292.47;;;14.17;46.41
56713;BME280;42589;45.536;9.032;2023-02-21T03:43:34;100285.59;;;14.07;47.04
56713;BME280;42589;45.536;9.032;2023-02-21T03:46:35;100273.59;;;13.08;48.68
56713;BME280;42589;45.536;9.032;2023-02-21T03:49:36;100278.03;;;12.99;49.30
56713;BME280;42589;45.536;9.032;2023-02-21T03:52:36;100275.84;;;13.21;48.93
56713;BME280;42589;45.536;9.032;2023-02-21T03:55:37;100274.84;;;13.22;47.91
56713;BME280;42589;45.536;9.032;2023-02-21T03:58:38;100272.91;;;12.62;50.12
56713;BME280;42589;45.536;9.032;2023-02-21T04:01:39;100278.66;;;12.93;49.96
56713;BME280;42589;45.536;9.032;2023-02-21T04:04:40;100269.69;;;12.94;48.67
56713;BME280;42589;45.536;9.032;2023-02-21T04:07:40;100267.88;;;13.03;48.33
56713;BME280;42589;45.536;9.032;2023-02-21T04:10:41;100261.50;;;13.22;47.84
56713;BME280;42589;45.536;9.032;2023-02-21T04:13:42;100271.34;;;13.47;47.13
56713;BME280;42589;45.536;9.032;2023-02-21T04:16:43;100267.19;;;13.53;47.04
56713;BME280;42589;45.536;9.032;2023-02-21T04:19:43;100267.56;;;13.58;47.06
56713;BME280;42589;45.536;9.032;2023-02-21T04:22:44;100245.63;;;13.46;46.92
56713;BME280;42589;45.536;9.032;2023-02-21T04:25:45;100252.50;;;13.23;48.35
56713;BME280;42589;45.536;9.032;2023-02-21T04:28:46;100253.19;;;12.99;48.52
56713;BME280;42589;45.536;9.032;2023-02-21T04:31:46;100263.94;;;13.33;47.96
56713;BME280;42589;45.536;9.032;2023-02-21T04:34:47;100253.72;;;13.29;47.96
56713;BME280;42589;45.536;9.032;2023-02-21T04:37:47;100262.53;;;13.55;47.74
56713;BME280;42589;45.536;9.032;2023-02-21T04:40:49;100261.34;;;13.23;48.07
56713;BME280;42589;45.536;9.032;2023-02-21T04:43:49;100259.69;;;13.49;48.29
56713;BME280;42589;45.536;9.032;2023-02-21T04:46:51;100262.84;;;13.52;47.66
56713;BME280;42589;45.536;9.032;2023-02-21T04:49:52;100248.94;;;13.40;48.25
56713;BME280;42589;45.536;9.032;2023-02-21T04:52:52;100261.72;;;13.55;47.27
56713;BME280;42589;45.536;9.032;2023-02-21T04:55:53;100240.44;;;13.19;48.27
56713;BME280;42589;45.536;9.032;2023-02-21T04:58:55;100250.97;;;13.46;47.46
56713;BME280;42589;45.536;9.032;2023-02-21T05:01:55;100249.81;;;13.49;47.43
56713;BME280;42589;45.536;9.032;2023-02-21T05:04:56;100246.72;;;13.62;47.27
56713;BME280;42589;45.536;9.032;2023-02-21T05:07:57;100241.09;;;13.39;46.88
56713;BME280;42589;45.536;9.032;2023-02-21T05:10:58;100230.09;;;13.42;47.01
56713;BME280;42589;45.536;9.032;2023-02-21T05:14:00;100236.34;;;13.59;47.45
56713;BME280;42589;45.536;9.032;2023-02-21T05:17:01;100233.75;;;13.41;46.84
56713;BME280;42589;45.536;9.032;2023-02-21T05:20:02;100212.06;;;13.36;48.60
56713;BME280;42589;45.536;9.032;2023-02-21T05:23:03;100224.47;;;13.53;47.84
56713;BME280;42589;45.536;9.032;2023-02-21T05:26:10;100230.97;;;13.51;47.71
56713;BME280;42589;45.536;9.032;2023-02-21T05:29:11;100205.06;;;13.43;47.33
56713;BME280;42589;45.536;9.032;2023-02-21T05:32:12;100214.84;;;13.68;47.21
56713;BME280;42589;45.536;9.032;2023-02-21T05:35:15;100206.59;;;13.45;48.66
56713;BME280;42589;45.536;9.032;2023-02-21T05:38:17;100209.50;;;13.68;47.63
56713;BME280;42589;45.536;9.032;2023-02-21T05:41:19;100205.94;;;13.52;46.59
56713;BME280;42589;45.536;9.032;2023-02-21T05:44:20;100216.50;;;13.69;47.14
56713;BME280;42589;45.536;9.032;2023-02-21T05:47:20;100224.50;;;13.69;46.91
56713;BME280;42589;45.536;9.032;2023-02-21T05:50:21;100218.56;;;13.84;47.27
56713;BME280;42589;45.536;9.032;2023-02-21T05:53:22;100194.97;;;13.71;48.64
56713;BME280;42589;45.536;9.032;2023-02-21T05:56:24;100229.41;;;13.82;48.29
56713;BME280;42589;45.536;9.032;2023-02-21T05:59:24;100217.25;;;13.96;48.09
56713;BME280;42589;45.536;9.032;2023-02-21T06:02:25;100209.09;;;14.22;47.78
56713;BME280;42589;45.536;9.032;2023-02-21T06:05:26;100219.28;;;14.27;47.46
56713;BME280;42589;45.536;9.032;2023-02-21T06:08:27;100212.47;;;14.57;46.27
56713;BME280;42589;45.536;9.032;2023-02-21T06:11:30;100218.50;;;14.59;46.01
56713;BME280;42589;45.536;9.032;2023-02-21T06:14:32;100222.66;;;14.61;46.68
56713;BME280;42589;45.536;9.032;2023-02-21T06:17:35;100218.50;;;14.75;46.30
56713;BME280;42589;45.536;9.032;2023-02-21T06:20:36;100228.38;;;14.75;46.45
56713;BME280;42589;45.536;9.032;2023-02-21T06:23:37;100223.66;;;14.85;46.91
56713;BME280;42589;45.536;9.032;2023-02-21T06:26:38;100219.47;;;14.74;46.06
56713;BME280;42589;45.536;9.032;2023-02-21T06:29:40;100205.59;;;14.38;46.27
56713;BME280;42589;45.536;9.032;2023-02-21T06:32:41;100209.28;;;14.37;46.29
56713;BME280;42589;45.536;9.032;2023-02-21T06:35:43;100214.78;;;14.35;46.12
56713;BME280;42589;45.536;9.032;2023-02-21T06:38:48;100223.16;;;14.40;46.96
56713;BME280;42589;45.536;9.032;2023-02-21T06:41:50;100219.97;;;14.45;46.53
56713;BME280;42589;45.536;9.032;2023-02-21T06:44:51;100217.81;;;14.57;46.87
56713;BME280;42589;45.536;9.032;2023-02-21T06:47:52;100219.34;;;14.59;46.57
56713;BME280;42589;45.536;9.032;2023-02-21T06:50:53;100220.84;;;14.54;46.56
56713;BME280;42589;45.536;9.032;2023-02-21T06:53:54;100225.66;;;14.83;46.74
56713;BME280;42589;45.536;9.032;2023-02-21T06:56:55;100218.63;;;14.90;47.38
56713;BME280;42589;45.536;9.032;2023-02-21T06:59:56;100219.25;;;15.08;45.94
56713;BME280;42589;45.536;9.032;2023-02-21T07:02:57;100223.97;;;14.98;46.71
56713;BME280;42589;45.536;9.032;2023-02-21T07:05:58;100215.88;;;15.15;46.75
56713;BME280;42589;45.536;9.032;2023-02-21T07:08:59;100217.00;;;15.37;45.68
56713;BME280;42589;45.536;9.032;2023-02-21T07:12:00;100213.28;;;15.46;45.91
56713;BME280;42589;45.536;9.032;2023-02-21T07:15:02;100225.56;;;15.71;45.76
56713;BME280;42589;45.536;9.032;2023-02-21T07:18:03;100230.09;;;15.71;45.96
56713;BME280;42589;45.536;9.032;2023-02-21T07:21:04;100214.41;;;15.91;45.50
56713;BME280;42589;45.536;9.032;2023-02-21T07:24:06;100218.28;;;15.49;47.00
56713;BME280;42589;45.536;9.032;2023-02-21T07:27:07;100239.97;;;16.01;46.03
56713;BME280;42589;45.536;9.032;2023-02-21T07:30:09;100222.28;;;15.92;45.46
56713;BME280;42589;45.536;9.032;2023-02-21T07:33:13;100247.81;;;16.34;46.10
56713;BME280;42589;45.536;9.032;2023-02-21T07:36:14;100246.88;;;16.27;45.20
56713;BME280;42589;45.536;9.032;2023-02-21T07:39:14;100247.97;;;16.10;45.04
56713;BME280;42589;45.536;9.032;2023-02-21T07:42:15;100255.03;;;15.80;45.43
56713;BME280;42589;45.536;9.032;2023-02-21T07:45:16;100241.53;;;15.96;44.67
56713;BME280;42589;45.536;9.032;2023-02-21T07:48:17;100258.44;;;15.96;44.64
56713;BME280;42589;45.536;9.032;2023-02-21T07:51:18;100252.81;;;15.83;44.58
56713;BME280;42589;45.536;9.032;2023-02-21T07:54:19;100240.97;;;15.69;45.26
56713;BME280;42589;45.536;9.032;2023-02-21T07:57:20;100253.75;;;15.67;44.84
56713;BME280;42589;45.536;9.032;2023-02-21T08:00:23;100266.50;;;15.49;45.42
56713;BME280;42589;45.536;9.032;2023-02-21T08:03:24;100250.00;;;15.21;45.45
56713;BME280;42589;45.536;9.032;2023-02-21T08:06:25;100251.94;;;15.51;44.81
56713;BME280;42589;45.536;9.032;2023-02-21T08:09:26;100248.53;;;15.02;45.41
56713;BME280;42589;45.536;9.032;2023-02-21T08:12:27;100262.91;;;15.09;44.83
56713;BME280;42589;45.536;9.032;2023-02-21T08:15:27;100247.47;;;15.36;44.43
56713;BME280;42589;45.536;9.032;2023-02-21T08:18:28;100255.31;;;15.37;43.99
56713;BME280;42589;45.536;9.032;2023-02-21T08:21:30;100262.88;;;15.25;44.54
56713;BME280;42589;45.536;9.032;2023-02-21T08:24:30;100238.09;;;15.31;44.21
56713;BME280;42589;45.536;9.032;2023-02-21T08:27:32;100248.13;;;15.38;43.96
56713;BME280;42589;45.536;9.032;2023-02-21T08:30:33;100238.31;;;15.14;44.11
56713;BME280;42589;45.536;9.032;2023-02-21T08:33:34;100250.09;;;15.52;43.58
56713;BME280;42589;45.536;9.032;2023-02-21T08:36:37;100262.94;;;15.56;43.76
56713;BME280;42589;45.536;9.032;2023-02-21T08:39:37;100265.75;;;15.24;44.43
56713;BME280;42589;45.536;9.032;2023-02-21T08:42:38;100261.53;;;15.29;44.56
56713;BME280;42589;45.536;9.032;2023-02-21T08:45:39;100251.19;;;15.26;44.79
56713;BME280;42589;45.536;9.032;2023-02-21T08:48:40;100250.09;;;15.44;44.58
56713;BME280;42589;45.536;9.032;2023-02-21T08:51:40;100263.91;;;15.80;43.66
56713;BME280;42589;45.536;9.032;2023-02-21T08:54:42;100245.84;;;16.51;42.46
56713;BME280;42589;45.536;9.032;2023-02-21T08:57:47;100252.88;;;16.29;43.14
56713;BME280;42589;45.536;9.032;2023-02-21T09:00:48;100259.72;;;16.32;44.08
56713;BME280;42589;45.536;9.032;2023-02-21T09:03:49;100238.28;;;16.92;42.08
56713;BME280;42589;45.536;9.032;2023-02-21T09:06:50;100249.53;;;16.50;43.08
56713;BME280;42589;45.536;9.032;2023-02-21T09:09:51;100245.16;;;16.72;42.95
56713;BME280;42589;45.536;9.032;2023-02-21T09:12:52;100250.25;;;17.05;42.89
56713;BME280;42589;45.536;9.032;2023-02-21T09:15:53;100244.28;;;16.57;43.81
56713;BME280;42589;45.536;9.032;2023-02-21T09:18:59;100240.13;;;16.92;44.66
56713;BME280;42589;45.536;9.032;2023-02-21T09:22:07;100240.91;;;17.01;43.22
56713;BME280;42589;45.536;9.032;2023-02-21T09:25:08;100245.72;;;17.05;42.08
56713;BME280;42589;45.536;9.032;2023-02-21T09:28:13;100252.63;;;17.00;42.71
56713;BME280;42589;45.536;9.032;2023-02-21T09:31:13;100244.16;;;17.26;42.70
56713;BME280;42589;45.536;9.032;2023-02-21T09:34:15;100251.94;;;17.80;42.05
56713;BME280;42589;45.536;9.032;2023-02-21T09:37:16;100250.81;;;17.89;41.74
56713;BME280;42589;45.536;9.032;2023-02-21T09:43:35;100258.28;;;18.08;41.51
56713;BME280;42589;45.536;9.032;2023-02-21T09:46:43;100240.28;;;17.94;41.32
56713;BME280;42589;45.536;9.032;2023-02-21T09:49:45;100249.75;;;18.48;41.30
56713;BME280;42589;45.536;9.032;2023-02-21T09:52:47;100247.00;;;18.41;41.15
56713;BME280;42589;45.536;9.032;2023-02-21T09:55:50;100244.09;;;19.14;41.13
56713;BME280;42589;45.536;9.032;2023-02-21T09:58:54;100250.22;;;19.29;39.54
56713;BME280;42589;45.536;9.032;2023-02-21T10:05:43;100231.91;;;19.59;38.82
56713;BME280;42589;45.536;9.032;2023-02-21T10:09:02;100238.34;;;19.58;39.58
56713;BME280;42589;45.536;9.032;2023-02-21T10:12:49;100239.16;;;19.59;39.52
56713;BME280;42589;45.536;9.032;2023-02-21T10:15:40;100247.44;;;19.99;39.81
56713;BME280;42589;45.536;9.032;2023-02-21T10:19:13;100237.53;;;20.32;39.50
56713;BME280;42589;45.536;9.032;2023-02-21T10:22:20;100234.75;;;19.86;39.77
56713;BME280;42589;45.536;9.032;2023-02-21T10:25:23;100234.44;;;20.42;38.86
56713;BME280;42589;45.536;9.032;2023-02-21T10:28:25;100245.03;;;20.30;38.87
56713;BME280;42589;45.536;9.032;2023-02-21T10:31:37;100241.34;;;20.58;39.16
56713;BME280;42589;45.536;9.032;2023-02-21T10:34:39;100242.50;;;20.09;39.15
56713;BME280;42589;45.536;9.032;2023-02-21T10:37:51;100231.38;;;20.58;39.44
56713;BME280;42589;45.536;9.032;2023-02-21T10:40:57;100235.84;;;20.11;38.83
56713;BME280;42589;45.536;9.032;2023-02-21T10:44:20;100239.00;;;20.41;39.23
56713;BME280;42589;45.536;9.032;2023-02-21T10:47:52;100226.13;;;20.24;39.29
56713;BME280;42589;45.536;9.032;2023-02-21T10:57:18;100218.75;;;19.91;39.79
56713;BME280;42589;45.536;9.032;2023-02-21T11:03:30;100200.19;;;19.61;40.24
56713;BME280;42589;45.536;9.032;2023-02-21T11:06:35;100212.00;;;19.60;40.64
56713;BME280;42589;45.536;9.032;2023-02-21T11:09:43;100209.56;;;19.72;40.50
56713;BME280;42589;45.536;9.032;2023-02-21T11:13:00;100200.59;;;20.39;39.61
56713;BME280;42589;45.536;9.032;2023-02-21T11:16:19;100189.78;;;20.26;40.09
56713;BME280;42589;45.536;9.032;2023-02-21T11:19:21;100185.09;;;19.67;41.10
56713;BME280;42589;45.536;9.032;2023-02-21T11:25:38;100168.22;;;20.53;39.48
56713;BME280;42589;45.536;9.032;2023-02-21T11:28:44;100170.28;;;20.51;39.60
56713;BME280;42589;45.536;9.032;2023-02-21T11:31:46;100173.22;;;20.56;39.35
56713;BME280;42589;45.536;9.032;2023-02-21T11:34:48;100162.41;;;20.62;39.66
56713;BME280;42589;45.536;9.032;2023-02-21T11:37:57;100157.00;;;20.49;39.16
56713;BME280;42589;45.536;9.032;2023-02-21T11:40:59;100148.88;;;20.49;39.53
56713;BME280;42589;45.536;9.032;2023-02-21T11:44:00;100136.63;;;20.73;39.94
56713;BME280;42589;45.536;9.032;2023-02-21T11:50:25;100136.59;;;20.07;40.38
56713;BME280;42589;45.536;9.032;2023-02-21T11:53:39;100138.69;;;20.31;40.24
56713;BME280;42589;45.536;9.032;2023-02-21T11:57:24;100134.25;;;21.10;39.14
56713;BME280;42589;45.536;9.032;2023-02-21T12:00:51;100118.53;;;21.45;38.40
56713;BME280;42589;45.536;9.032;2023-02-21T12:04:12;100116.22;;;20.91;39.79
56713;BME280;42589;45.536;9.032;2023-02-21T12:11:07;100101.09;;;21.41;39.14
56713;BME280;42589;45.536;9.032;2023-02-21T12:17:57;100100.81;;;21.49;38.76
56713;BME280;42589;45.536;9.032;2023-02-21T12:24:52;100094.91;;;22.47;37.06
56713;BME280;42589;45.536;9.032;2023-02-21T12:28:12;100089.09;;;22.87;37.32
56713;BME280;42589;45.536;9.032;2023-02-21T12:31:47;100089.03;;;21.30;40.17
56713;BME280;42589;45.536;9.032;2023-02-21T12:35:26;100080.28;;;20.77;40.13
56713;BME280;42589;45.536;9.032;2023-02-21T12:48:48;100056.78;;;23.23;36.15
56713;BME280;42589;45.536;9.032;2023-02-21T12:51:58;100062.38;;;23.39;36.15
56713;BME280;42589;45.536;9.032;2023-02-21T12:58:33;100060.63;;;21.85;39.10
56713;BME280;42589;45.536;9.032;2023-02-21T13:01:48;100049.34;;;22.81;37.11
56713;BME280;42589;45.536;9.032;2023-02-21T13:04:56;100045.97;;;23.04;36.63
56713;BME280;42589;45.536;9.032;2023-02-21T13:08:04;100032.75;;;22.89;37.29
56713;BME280;42589;45.536;9.032;2023-02-21T13:11:21;100029.63;;;23.83;35.44
56713;BME280;42589;45.536;9.032;2023-02-21T13:14:40;100040.31;;;23.06;36.64
56713;BME280;42589;45.536;9.032;2023-02-21T13:17:55;100025.25;;;22.36;38.04
56713;BME280;42589;45.536;9.032;2023-02-21T13:24:24;100028.22;;;20.56;40.85
56713;BME280;42589;45.536;9.032;2023-02-21T13:27:52;100016.56;;;21.77;39.51
56713;BME280;42589;45.536;9.032;2023-02-21T13:31:00;100017.50;;;22.77;37.20
56713;BME280;42589;45.536;9.032;2023-02-21T13:34:08;100015.47;;;22.72;37.19
56713;BME280;42589;45.536;9.032;2023-02-21T13:37:23;100008.72;;;21.44;39.36
56713;BME280;42589;45.536;9.032;2023-02-21T13:43:50;100008.16;;;22.54;37.78
56713;BME280;42589;45.536;9.032;2023-02-21T13:49:54;99995.25;;;21.88;38.90
56713;BME280;42589;45.536;9.032;2023-02-21T14:02:28;99987.09;;;22.38;37.60
56713;BME280;42589;45.536;9.032;2023-02-21T14:08:46;99978.00;;;22.32;37.94
56713;BME280;42589;45.536;9.032;2023-02-21T14:11:50;99978.16;;;22.37;38.15
56713;BME280;42589;45.536;9.032;2023-02-21T14:15:04;99960.31;;;21.86;38.46
56713;BME280;42589;45.536;9.032;2023-02-21T14:18:17;99973.16;;;22.16;38.53
56713;BME280;42589;45.536;9.032;2023-02-21T14:21:39;99956.34;;;22.07;37.77
56713;BME280;42589;45.536;9.032;2023-02-21T14:24:46;99964.50;;;21.25;40.07
56713;BME280;42589;45.536;9.032;2023-02-21T14:27:48;99965.09;;;20.96;40.12
56713;BME280;42589;45.536;9.032;2023-02-21T14:31:01;99948.28;;;22.25;37.84
56713;BME280;42589;45.536;9.032;2023-02-21T14:34:02;99961.91;;;21.05;39.39
56713;BME280;42589;45.536;9.032;2023-02-21T14:37:57;99959.03;;;21.39;39.76
56713;BME280;42589;45.536;9.032;2023-02-21T14:43:48;99960.13;;;22.80;37.51
56713;BME280;42589;45.536;9.032;2023-02-21T14:50:13;99968.88;;;22.63;37.26
56713;BME280;42589;45.536;9.032;2023-02-21T15:02:45;99956.75;;;22.84;37.13
56713;BME280;42589;45.536;9.032;2023-02-21T15:06:06;99949.03;;;23.83;35.36
56713;BME280;42589;45.536;9.032;2023-02-21T15:09:19;99958.63;;;23.44;35.77
56713;BME280;42589;45.536;9.032;2023-02-21T15:12:21;99941.31;;;23.03;36.04
56713;BME280;42589;45.536;9.032;2023-02-21T15:15:28;99961.19;;;22.79;36.73
56713;BME280;42589;45.536;9.032;2023-02-21T15:18:35;99952.50;;;23.07;36.42
56713;BME280;42589;45.536;9.032;2023-02-21T15:21:35;99960.84;;;22.57;36.49
56713;BME280;42589;45.536;9.032;2023-02-21T15:24:36;99949.78;;;23.07;35.99
56713;BME280;42589;45.536;9.032;2023-02-21T15:27:52;99957.72;;;22.90;36.72
56713;BME280;42589;45.536;9.032;2023-02-21T15:31:05;99954.69;;;22.98;36.69
56713;BME280;42589;45.536;9.032;2023-02-21T15:34:17;99935.25;;;22.71;37.53
56713;BME280;42589;45.536;9.032;2023-02-21T15:37:22;99943.53;;;22.58;37.17
56713;BME280;42589;45.536;9.032;2023-02-21T15:40:25;99951.88;;;22.56;37.17
56713;BME280;42589;45.536;9.032;2023-02-21T15:43:29;99940.09;;;22.99;36.80
56713;BME280;42589;45.536;9.032;2023-02-21T15:47:02;99945.63;;;22.74;37.64
56713;BME280;42589;45.536;9.032;2023-02-21T15:53:22;99927.97;;;22.35;37.16
56713;BME280;42589;45.536;9.032;2023-02-21T15:56:24;99933.47;;;22.46;37.24
56713;BME280;42589;45.536;9.032;2023-02-21T15:59:28;99934.91;;;22.31;37.68
56713;BME280;42589;45.536;9.032;2023-02-21T16:02:29;99933.47;;;22.46;37.38
56713;BME280;42589;45.536;9.032;2023-02-21T16:05:29;99930.50;;;21.43;39.06
56713;BME280;42589;45.536;9.032;2023-02-21T16:08:30;99928.84;;;21.92;38.07
56713;BME280;42589;45.536;9.032;2023-02-21T16:11:43;99939.81;;;21.97;38.38
56713;BME280;42589;45.536;9.032;2023-02-21T16:14:53;99937.28;;;21.52;38.68
56713;BME280;42589;45.536;9.032;2023-02-21T16:17:57;99935.19;;;20.91;39.91
56713;BME280;42589;45.536;9.032;2023-02-21T16:21:02;99938.06;;;21.59;38.62
56713;BME280;42589;45.536;9.032;2023-02-21T16:27:23;99936.69;;;21.75;37.95
56713;BME280;42589;45.536;9.032;2023-02-21T16:30:27;99924.88;;;21.44;38.49
56713;BME280;42589;45.536;9.032;2023-02-21T16:33:28;99932.50;;;21.54;38.54
56713;BME280;42589;45.536;9.032;2023-02-21T16:36:31;99921.19;;;21.39;38.54
56713;BME280;42589;45.536;9.032;2023-02-21T16:39:32;99934.34;;;21.28;38.95
56713;BME280;42589;45.536;9.032;2023-02-21T16:42:33;99940.66;;;21.16;39.30
56713;BME280;42589;45.536;9.032;2023-02-21T16:45:34;99901.75;;;20.85;39.51
56713;BME280;42589;45.536;9.032;2023-02-21T16:48:34;99910.50;;;20.87;39.63
56713;BME280;42589;45.536;9.032;2023-02-21T16:51:35;99940.38;;;20.92;39.99
56713;BME280;42589;45.536;9.032;2023-02-21T16:54:41;99926.72;;;20.80;40.13
56713;BME280;42589;45.536;9.032;2023-02-21T16:57:47;99946.88;;;20.84;40.38
56713;BME280;42589;45.536;9.032;2023-02-21T17:00:49;99922.91;;;20.50;40.41
56713;BME280;42589;45.536;9.032;2023-02-21T17:03:50;99939.72;;;20.58;40.70
56713;BME280;42589;45.536;9.032;2023-02-21T17:06:56;99947.44;;;20.41;41.44
56713;BME280;42589;45.536;9.032;2023-02-21T17:09:57;99950.16;;;20.35;41.11
56713;BME280;42589;45.536;9.032;2023-02-21T17:13:00;99936.47;;;20.23;41.00
56713;BME280;42589;45.536;9.032;2023-02-21T17:16:03;99960.97;;;20.22;41.33
56713;BME280;42589;45.536;9.032;2023-02-21T17:19:04;99954.38;;;20.17;41.23
56713;BME280;42589;45.536;9.032;2023-02-21T17:22:05;99947.94;;;20.05;41.70
56713;BME280;42589;45.536;9.032;2023-02-21T17:25:06;99966.44;;;20.02;41.99
56713;BME280;42589;45.536;9.032;2023-02-21T17:28:07;99967.69;;;19.86;41.96
56713;BME280;42589;45.536;9.032;2023-02-21T17:31:08;99967.47;;;19.81;42.00
56713;BME280;42589;45.536;9.032;2023-02-21T17:34:14;99974.31;;;19.90;42.30
56713;BME280;42589;45.536;9.032;2023-02-21T17:37:15;99974.75;;;19.80;42.11
56713;BME280;42589;45.536;9.032;2023-02-21T17:40:18;99983.88;;;19.79;42.30
56713;BME280;42589;45.536;9.032;2023-02-21T17:43:19;99954.38;;;19.58;42.43
56713;BME280;42589;45.536;9.032;2023-02-21T17:46:21;99975.75;;;19.59;42.43
56713;BME280;42589;45.536;9.032;2023-02-21T17:49:25;99977.41;;;19.54;42.91
56713;BME280;42589;45.536;9.032;2023-02-21T17:52:26;99989.03;;;19.47;42.78
56713;BME280;42589;45.536;9.032;2023-02-21T17:55:27;99988.38;;;19.39;43.01
56713;BME280;42589;45.536;9.032;2023-02-21T17:58:29;99981.94;;;19.27;42.82
56713;BME280;42589;45.536;9.032;2023-02-21T18:01:29;99954.13;;;19.06;43.05
56713;BME280;42589;45.536;9.032;2023-02-21T18:04:30;99992.50;;;19.28;42.95
56713;BME280;42589;45.536;9.032;2023-02-21T18:07:31;99998.50;;;19.23;43.18
56713;BME280;42589;45.536;9.032;2023-02-21T18:10:32;99980.03;;;19.14;43.07
56713;BME280;42589;45.536;9.032;2023-02-21T18:13:33;100000.16;;;19.24;43.05
56713;BME280;42589;45.536;9.032;2023-02-21T18:16:34;99985.84;;;19.17;43.26
56713;BME280;42589;45.536;9.032;2023-02-21T18:19:36;100002.63;;;19.13;43.52
56713;BME280;42589;45.536;9.032;2023-02-21T18:22:37;99983.31;;;19.02;43.51
56713;BME280;42589;45.536;9.032;2023-02-21T18:25:38;99988.91;;;19.01;43.40
56713;BME280;42589;45.536;9.032;2023-02-21T18:28:38;100005.88;;;18.95;43.70
56713;BME280;42589;45.536;9.032;2023-02-21T18:31:39;99997.56;;;18.90;43.62
56713;BME280;42589;45.536;9.032;2023-02-21T18:34:41;100005.44;;;18.85;43.92